createdAt,value
2024-03-03T00:00:00.641Z,1.00
2024-03-03T00:01:02.397Z,1.00
2024-03-03T00:02:04.177Z,1.00
2024-03-03T00:03:06.157Z,65.10
2024-03-03T00:04:07.842Z,88.60
2024-03-03T00:05:09.501Z,99.90
2024-03-03T00:06:11.136Z,99.90
2024-03-03T00:07:12.860Z,99.90
2024-03-03T00:08:14.548Z,99.90
2024-03-03T00:09:16.192Z,99.90
2024-03-03T00:10:17.875Z,97.60
2024-03-03T00:11:19.620Z,76.80
2024-03-03T00:12:21.251Z,83.80
2024-03-03T00:13:23.505Z,15.00
2024-03-03T00:14:25.465Z,1.00
2024-03-03T00:15:27.143Z,1.00
2024-03-03T00:16:34.904Z,1.00
2024-03-03T00:17:37.434Z,1.00
2024-03-03T00:18:39.915Z,1.00
2024-03-03T00:19:42.530Z,1.00
2024-03-03T00:20:44.218Z,1.00
2024-03-03T00:21:45.885Z,1.00
2024-03-03T00:22:47.650Z,1.00
2024-03-03T00:23:49.298Z,1.00
2024-03-03T00:24:51.007Z,1.00
2024-03-03T00:25:52.672Z,9.10
2024-03-03T00:26:54.293Z,18.70
2024-03-03T00:27:55.931Z,1.00
2024-03-03T00:28:57.566Z,1.00
2024-03-03T00:29:59.276Z,1.00
2024-03-03T00:31:00.986Z,1.00
2024-03-03T00:32:03.409Z,99.90
2024-03-03T00:33:05.471Z,1.00
2024-03-03T00:34:07.206Z,99.90
2024-03-03T00:35:10.824Z,1.00
2024-03-03T00:36:12.552Z,1.00
2024-03-03T00:37:19.277Z,1.00
2024-03-03T00:38:20.919Z,1.00
2024-03-03T00:39:22.713Z,1.00
2024-03-03T00:40:24.417Z,1.00
2024-03-03T00:41:26.108Z,16.80
2024-03-03T00:42:27.769Z,61.40
2024-03-03T00:43:29.433Z,62.30
2024-03-03T00:44:31.043Z,83.40
2024-03-03T00:45:34.138Z,82.40
2024-03-03T00:46:35.766Z,24.90
2024-03-03T00:47:37.436Z,1.00
2024-03-03T00:48:39.185Z,1.00
2024-03-03T00:49:40.810Z,1.00
2024-03-03T00:50:42.828Z,1.00
2024-03-03T00:51:44.485Z,1.00
2024-03-03T00:52:46.096Z,1.00
2024-03-03T00:53:47.712Z,99.90
2024-03-03T00:54:49.360Z,1.00
2024-03-03T00:55:52.442Z,1.00
2024-03-03T00:56:54.077Z,1.00
2024-03-03T00:57:55.787Z,99.90
2024-03-03T00:58:57.446Z,1.00
2024-03-03T00:59:59.276Z,1.00
2024-03-03T01:01:01.013Z,99.90
2024-03-03T01:02:02.723Z,1.00
2024-03-03T01:03:04.640Z,1.00
2024-03-03T01:04:06.371Z,1.00
2024-03-03T01:05:10.335Z,1.00
2024-03-03T01:06:12.014Z,1.00
2024-03-03T01:07:13.743Z,1.00
2024-03-03T01:08:15.459Z,1.00
2024-03-03T01:09:19.021Z,22.20
2024-03-03T01:10:22.148Z,1.00
2024-03-03T01:11:23.879Z,99.90
2024-03-03T01:12:25.671Z,99.90
2024-03-03T01:13:27.364Z,1.00
2024-03-03T01:14:28.970Z,94.70
2024-03-03T01:15:30.602Z,99.90
2024-03-03T01:16:32.402Z,99.90
2024-03-03T01:17:34.023Z,1.00
2024-03-03T01:18:35.766Z,1.00
2024-03-03T01:19:37.711Z,1.00
2024-03-03T01:20:39.540Z,71.60
2024-03-03T01:21:41.695Z,99.90
2024-03-03T01:22:43.358Z,99.90
2024-03-03T01:23:45.020Z,99.90
2024-03-03T01:24:46.652Z,99.90
2024-03-03T01:25:50.299Z,99.90
2024-03-03T01:26:51.992Z,99.90
2024-03-03T01:27:53.687Z,72.70
2024-03-03T01:28:55.303Z,20.20
2024-03-03T01:29:56.942Z,1.00
2024-03-03T01:30:58.594Z,1.00
2024-03-03T01:32:00.403Z,1.00
2024-03-03T01:33:02.058Z,77.80
2024-03-03T01:34:03.824Z,34.20
2024-03-03T01:35:05.720Z,1.00
2024-03-03T01:36:07.753Z,99.90
2024-03-03T01:37:09.586Z,99.90
2024-03-03T01:38:11.243Z,1.00
2024-03-03T01:39:12.962Z,1.00
2024-03-03T01:40:15.271Z,99.90
2024-03-03T01:41:16.909Z,1.00
2024-03-03T01:42:18.607Z,1.00
2024-03-03T01:43:20.361Z,99.90
2024-03-03T01:44:22.630Z,1.00
2024-03-03T01:45:25.356Z,1.00
2024-03-03T01:46:27.969Z,1.00
2024-03-03T01:47:29.892Z,99.90
2024-03-03T01:48:31.596Z,99.90
2024-03-03T01:49:36.600Z,99.90
2024-03-03T01:50:39.769Z,99.90
2024-03-03T01:51:42.736Z,99.90
2024-03-03T01:52:45.654Z,1.00
2024-03-03T01:53:51.990Z,1.00
2024-03-03T01:54:53.778Z,1.00
2024-03-03T01:55:55.840Z,1.00
2024-03-03T01:56:59.012Z,1.80
2024-03-03T01:58:04.670Z,72.00
2024-03-03T01:59:10.018Z,95.70
2024-03-03T02:00:12.394Z,84.00
2024-03-03T02:01:15.714Z,9.40
2024-03-03T02:02:17.506Z,1.00
2024-03-03T02:03:20.052Z,1.00
2024-03-03T02:04:23.021Z,1.00
2024-03-03T02:05:25.107Z,1.00
2024-03-03T02:06:31.503Z,1.00
2024-03-03T02:07:33.535Z,1.00
2024-03-03T02:08:35.981Z,1.00
2024-03-03T02:09:38.475Z,20.30
2024-03-03T02:10:40.254Z,97.70
2024-03-03T02:11:42.450Z,99.90
2024-03-03T02:12:47.785Z,99.90
2024-03-03T02:13:49.585Z,99.90
2024-03-03T02:14:51.251Z,99.90
2024-03-03T02:15:52.931Z,99.90
2024-03-03T02:16:54.643Z,99.90
2024-03-03T02:17:57.224Z,99.90
2024-03-03T02:18:59.295Z,99.90
2024-03-03T02:20:01.031Z,99.90
2024-03-03T02:21:02.720Z,99.90
2024-03-03T02:22:04.566Z,99.90
2024-03-03T02:23:06.935Z,99.90
2024-03-03T02:24:08.659Z,99.90
2024-03-03T02:25:10.894Z,99.90
2024-03-03T02:26:12.960Z,99.90
2024-03-03T02:27:14.726Z,99.90
2024-03-03T02:28:16.693Z,99.90
2024-03-03T02:29:20.214Z,99.90
2024-03-03T02:30:21.820Z,99.90
2024-03-03T02:31:26.691Z,99.90
2024-03-03T02:32:28.376Z,99.90
2024-03-03T02:33:30.085Z,99.90
2024-03-03T02:34:31.734Z,99.90
2024-03-03T02:35:33.387Z,99.90
2024-03-03T02:36:35.001Z,99.90
2024-03-03T02:37:36.621Z,99.90
2024-03-03T02:38:38.436Z,6.80
2024-03-03T02:39:40.164Z,1.00
2024-03-03T02:40:41.857Z,1.00
2024-03-03T02:41:43.482Z,1.00
2024-03-03T02:42:45.177Z,1.00
2024-03-03T02:43:46.894Z,1.00
2024-03-03T02:44:48.590Z,1.00
2024-03-03T02:45:50.279Z,1.00
2024-03-03T02:46:51.969Z,1.00
2024-03-03T02:47:55.066Z,1.00
2024-03-03T02:48:56.760Z,1.00
2024-03-03T02:49:58.465Z,1.00
2024-03-03T02:51:00.507Z,1.00
2024-03-03T02:52:02.455Z,1.00
2024-03-03T02:53:04.261Z,1.00
2024-03-03T02:54:05.877Z,1.00
2024-03-03T02:55:08.008Z,1.00
2024-03-03T02:56:10.096Z,7.10
2024-03-03T02:57:11.734Z,46.30
2024-03-03T02:58:13.615Z,88.30
2024-03-03T02:59:15.435Z,99.90
2024-03-03T03:00:17.755Z,99.90
2024-03-03T03:01:19.457Z,99.90
2024-03-03T03:02:21.385Z,99.90
2024-03-03T03:03:23.105Z,99.90
2024-03-03T03:04:24.772Z,99.90
2024-03-03T03:05:26.461Z,99.90
2024-03-03T03:06:28.068Z,99.90
2024-03-03T03:07:29.695Z,99.90
2024-03-03T03:08:31.316Z,99.90
2024-03-03T03:09:32.988Z,99.90
2024-03-03T03:10:34.614Z,99.90
2024-03-03T03:11:38.755Z,99.90
2024-03-03T03:12:40.402Z,99.90
2024-03-03T03:13:43.379Z,99.90
2024-03-03T03:14:45.000Z,99.90
2024-03-03T03:15:46.685Z,99.90
2024-03-03T03:16:48.310Z,99.90
2024-03-03T03:17:49.975Z,99.90
2024-03-03T03:18:51.667Z,99.90
2024-03-03T03:19:53.356Z,99.90
2024-03-03T03:20:54.973Z,99.90
2024-03-03T03:21:56.776Z,97.20
2024-03-03T03:22:58.453Z,77.20
2024-03-03T03:24:00.082Z,99.90
2024-03-03T03:25:01.781Z,99.90
2024-03-03T03:26:04.320Z,99.90
2024-03-03T03:27:06.194Z,99.90
2024-03-03T03:28:07.871Z,99.90
2024-03-03T03:29:09.523Z,99.90
2024-03-03T03:30:11.687Z,99.90
2024-03-03T03:31:13.406Z,99.90
2024-03-03T03:32:15.146Z,99.90
2024-03-03T03:33:16.829Z,99.90
2024-03-03T03:34:18.598Z,97.60
2024-03-03T03:35:20.355Z,94.10
2024-03-03T03:36:22.099Z,81.00
2024-03-03T03:37:23.816Z,96.40
2024-03-03T03:38:25.526Z,99.90
2024-03-03T03:39:29.171Z,99.90
2024-03-03T03:40:30.901Z,99.90
2024-03-03T03:41:32.558Z,94.40
2024-03-03T03:42:34.157Z,99.90
2024-03-03T03:43:35.778Z,99.90
2024-03-03T03:44:37.589Z,99.90
2024-03-03T03:45:39.355Z,99.90
2024-03-03T03:46:41.211Z,99.90
2024-03-03T03:47:42.889Z,99.90
2024-03-03T03:48:44.572Z,99.90
2024-03-03T03:49:46.369Z,96.60
2024-03-03T03:50:48.196Z,46.50
2024-03-03T03:51:50.031Z,94.80
2024-03-03T03:52:51.663Z,99.90
2024-03-03T03:53:53.382Z,99.90
2024-03-03T03:54:55.057Z,85.10
2024-03-03T03:55:56.711Z,78.00
2024-03-03T03:57:01.418Z,73.40
2024-03-03T03:58:03.773Z,45.50
2024-03-03T03:59:05.547Z,7.90
2024-03-03T04:00:11.092Z,1.00
2024-03-03T04:01:19.562Z,1.00
2024-03-03T04:02:21.288Z,1.00
2024-03-03T04:03:22.889Z,1.00
2024-03-03T04:04:24.577Z,18.20
2024-03-03T04:05:26.257Z,49.40
2024-03-03T04:06:29.666Z,62.90
2024-03-03T04:07:32.170Z,40.20
2024-03-03T04:08:33.778Z,55.80
2024-03-03T04:09:35.520Z,72.70
2024-03-03T04:10:37.193Z,58.80
2024-03-03T04:11:39.088Z,47.10
2024-03-03T04:12:40.765Z,79.70
2024-03-03T04:13:42.401Z,99.90
2024-03-03T04:14:44.132Z,99.90
2024-03-03T04:15:45.821Z,99.90
2024-03-03T04:16:47.438Z,99.90
2024-03-03T04:17:49.169Z,99.90
2024-03-03T04:18:50.830Z,99.90
2024-03-03T04:19:52.568Z,99.90
2024-03-03T04:20:54.248Z,99.90
2024-03-03T04:21:55.925Z,99.90
2024-03-03T04:22:57.598Z,99.90
2024-03-03T04:23:59.242Z,99.90
2024-03-03T04:25:01.057Z,99.90
2024-03-03T04:26:07.208Z,99.90
2024-03-03T04:27:08.833Z,99.90
2024-03-03T04:28:13.788Z,99.90
2024-03-03T04:29:15.456Z,99.90
2024-03-03T04:30:17.173Z,99.90
2024-03-03T04:31:18.833Z,99.90
2024-03-03T04:32:20.538Z,99.90
2024-03-03T04:33:22.231Z,99.90
2024-03-03T04:34:27.008Z,99.90
2024-03-03T04:35:28.717Z,99.90
2024-03-03T04:36:30.407Z,99.90
2024-03-03T04:37:32.140Z,99.90
2024-03-03T04:38:33.820Z,99.90
2024-03-03T04:39:36.273Z,99.90
2024-03-03T04:40:37.927Z,99.90
2024-03-03T04:41:39.687Z,99.90
2024-03-03T04:42:41.337Z,99.90
2024-03-03T04:43:43.359Z,99.90
2024-03-03T04:44:44.995Z,99.90
2024-03-03T04:45:47.446Z,99.90
2024-03-03T04:46:49.072Z,99.90
2024-03-03T04:47:51.513Z,99.90
2024-03-03T04:48:53.238Z,99.90
2024-03-03T04:49:54.899Z,99.90
2024-03-03T04:50:56.536Z,99.90
2024-03-03T04:51:58.235Z,99.90
2024-03-03T04:52:59.856Z,99.90
2024-03-03T04:54:01.544Z,99.90
2024-03-03T04:55:04.736Z,99.90
2024-03-03T04:56:06.590Z,99.90
2024-03-03T04:57:08.296Z,99.90
2024-03-03T04:58:09.984Z,99.90
2024-03-03T04:59:12.213Z,99.90
2024-03-03T05:01:17.041Z,99.90
2024-03-03T05:02:19.601Z,99.90
2024-03-03T05:03:21.372Z,99.90
2024-03-03T05:04:23.088Z,99.90
2024-03-03T05:05:24.722Z,99.90
2024-03-03T05:06:26.444Z,99.90
2024-03-03T05:07:28.881Z,99.90
2024-03-03T05:08:30.518Z,99.90
2024-03-03T05:09:32.233Z,99.90
2024-03-03T05:10:33.969Z,99.90
2024-03-03T05:11:36.849Z,99.90
2024-03-03T05:12:38.537Z,99.90
2024-03-03T05:13:40.239Z,99.90
2024-03-03T05:14:41.894Z,99.90
2024-03-03T05:15:43.654Z,99.90
2024-03-03T05:16:45.430Z,99.90
2024-03-03T05:17:47.149Z,99.90
2024-03-03T05:18:48.855Z,99.90
2024-03-03T05:19:51.473Z,99.90
2024-03-03T05:20:53.104Z,99.90
2024-03-03T05:21:55.113Z,99.90
2024-03-03T05:22:56.789Z,99.90
2024-03-03T05:23:58.443Z,99.90
2024-03-03T05:25:00.462Z,99.90
2024-03-03T05:26:02.154Z,99.90
2024-03-03T05:27:04.351Z,99.90
2024-03-03T05:28:06.277Z,99.90
2024-03-03T05:29:07.947Z,99.90
2024-03-03T05:30:09.761Z,99.90
2024-03-03T05:31:12.040Z,99.90
2024-03-03T05:32:13.762Z,99.90
2024-03-03T05:33:15.545Z,99.90
2024-03-03T05:34:17.450Z,99.90
2024-03-03T05:35:19.173Z,99.90
2024-03-03T05:36:20.806Z,99.90
2024-03-03T05:37:22.578Z,99.90
2024-03-03T05:38:24.238Z,99.90
2024-03-03T05:39:26.986Z,99.90
2024-03-03T05:40:28.765Z,99.90
2024-03-03T05:41:30.489Z,99.90
2024-03-03T05:42:32.099Z,99.90
2024-03-03T05:43:33.738Z,99.90
2024-03-03T05:44:36.724Z,99.90
2024-03-03T05:45:39.143Z,99.90
2024-03-03T05:46:40.970Z,99.90
2024-03-03T05:47:42.660Z,99.90
2024-03-03T05:48:44.351Z,99.90
2024-03-03T05:49:45.958Z,99.90
2024-03-03T05:50:47.735Z,93.90
2024-03-03T05:51:49.401Z,86.80
2024-03-03T05:52:51.034Z,97.50
2024-03-03T05:53:52.705Z,99.90
2024-03-03T05:54:54.353Z,99.90
2024-03-03T05:55:56.100Z,99.90
2024-03-03T05:56:57.822Z,99.90
2024-03-03T05:57:59.510Z,99.90
2024-03-03T05:59:01.268Z,99.90
2024-03-03T06:00:03.054Z,99.90
2024-03-03T06:01:05.535Z,99.90
2024-03-03T06:02:07.262Z,99.90
2024-03-03T06:03:08.934Z,99.90
2024-03-03T06:04:10.617Z,99.90
2024-03-03T06:05:12.330Z,99.90
2024-03-03T06:06:15.226Z,99.90
2024-03-03T06:07:17.205Z,99.90
2024-03-03T06:08:18.851Z,99.90
2024-03-03T06:09:20.527Z,99.90
2024-03-03T06:10:22.347Z,99.90
2024-03-03T06:11:24.100Z,99.90
2024-03-03T06:12:25.753Z,99.90
2024-03-03T06:13:27.454Z,99.90
2024-03-03T06:14:29.485Z,99.90
2024-03-03T06:15:31.599Z,99.90
2024-03-03T06:16:33.246Z,99.90
2024-03-03T06:17:34.959Z,99.90
2024-03-03T06:18:36.649Z,99.90
2024-03-03T06:19:38.280Z,99.90
2024-03-03T06:20:40.046Z,99.90
2024-03-03T06:21:42.852Z,99.90
2024-03-03T06:22:44.513Z,99.90
2024-03-03T06:23:46.157Z,99.90
2024-03-03T06:24:47.850Z,99.90
2024-03-03T06:25:49.557Z,99.90
2024-03-03T06:26:51.228Z,99.90
2024-03-03T06:27:53.235Z,99.90
2024-03-03T06:28:56.371Z,99.90
2024-03-03T06:29:58.006Z,99.90
2024-03-03T06:30:59.734Z,99.90
2024-03-03T06:32:01.467Z,99.90
2024-03-03T06:33:03.596Z,99.90
2024-03-03T06:34:05.305Z,99.90
2024-03-03T06:35:11.590Z,99.90
2024-03-03T06:36:18.283Z,99.90
2024-03-03T06:37:20.215Z,99.90
2024-03-03T06:38:21.974Z,99.90
2024-03-03T06:39:23.639Z,99.90
2024-03-03T06:40:25.345Z,99.90
2024-03-03T06:41:27.138Z,99.90
2024-03-03T06:42:30.854Z,91.00
2024-03-03T06:43:32.540Z,99.90
2024-03-03T06:44:35.356Z,99.90
2024-03-03T06:45:37.610Z,99.90
2024-03-03T06:46:44.357Z,99.90
2024-03-03T06:47:46.113Z,99.90
2024-03-03T06:48:47.785Z,99.90
2024-03-03T06:49:49.832Z,86.40
2024-03-03T06:50:51.480Z,8.50
2024-03-03T06:51:53.257Z,1.10
2024-03-03T06:52:54.995Z,52.50
2024-03-03T06:53:56.680Z,66.40
2024-03-03T06:54:59.207Z,87.30
2024-03-03T06:56:00.847Z,99.90
2024-03-03T06:57:02.474Z,99.90
2024-03-03T06:58:04.384Z,99.90
2024-03-03T06:59:06.262Z,99.90
2024-03-03T07:00:08.430Z,99.90
2024-03-03T07:01:10.408Z,99.90
2024-03-03T07:02:12.149Z,99.90
2024-03-03T07:03:20.421Z,99.90
2024-03-03T07:04:25.339Z,99.90
2024-03-03T07:05:27.178Z,99.90
2024-03-03T07:06:28.800Z,99.90
2024-03-03T07:07:30.451Z,99.90
2024-03-03T07:08:32.285Z,99.90
2024-03-03T07:09:34.030Z,99.90
2024-03-03T07:10:35.706Z,99.90
2024-03-03T07:11:37.653Z,99.90
2024-03-03T07:12:39.618Z,99.90
2024-03-03T07:13:41.372Z,99.90
2024-03-03T07:14:44.475Z,99.90
2024-03-03T07:15:46.201Z,82.50
2024-03-03T07:16:49.686Z,1.00
2024-03-03T07:17:51.384Z,99.90
2024-03-03T07:18:53.073Z,99.90
2024-03-03T07:19:54.756Z,1.00
2024-03-03T07:20:56.393Z,1.00
2024-03-03T07:21:58.052Z,99.90
2024-03-03T07:22:59.741Z,1.00
2024-03-03T07:24:01.457Z,1.00
2024-03-03T07:25:06.524Z,1.00
2024-03-03T07:26:09.108Z,1.00
2024-03-03T07:27:10.748Z,1.00
2024-03-03T07:28:12.537Z,1.00
2024-03-03T07:29:15.045Z,1.00
2024-03-03T07:30:17.623Z,1.00
2024-03-03T07:31:20.783Z,1.00
2024-03-03T07:32:22.605Z,1.00
2024-03-03T07:33:24.229Z,1.00
2024-03-03T07:34:25.940Z,1.00
2024-03-03T07:35:27.757Z,1.00
2024-03-03T07:36:29.459Z,1.00
2024-03-03T07:37:31.121Z,61.90
2024-03-03T07:38:32.775Z,99.90
2024-03-03T07:39:34.467Z,99.90
2024-03-03T07:40:38.422Z,99.90
2024-03-03T07:41:40.139Z,1.00
2024-03-03T07:42:42.497Z,1.00
2024-03-03T07:43:44.207Z,1.00
2024-03-03T07:44:45.867Z,1.00
2024-03-03T07:45:47.554Z,94.90
2024-03-03T07:46:49.286Z,99.90
2024-03-03T07:47:51.010Z,99.90
2024-03-03T07:48:53.301Z,1.00
2024-03-03T07:49:55.719Z,1.00
2024-03-03T07:50:57.528Z,99.90
2024-03-03T07:51:59.305Z,99.90
2024-03-03T07:53:00.925Z,1.00
2024-03-03T07:54:02.563Z,1.00
2024-03-03T07:55:04.591Z,1.00
2024-03-03T07:56:06.596Z,99.90
2024-03-03T07:57:08.283Z,1.00
2024-03-03T07:58:10.150Z,1.00
2024-03-03T07:59:11.873Z,1.00
2024-03-03T08:00:14.254Z,41.10
2024-03-03T08:01:15.977Z,87.30
2024-03-03T08:02:17.605Z,99.90
2024-03-03T08:03:19.410Z,99.90
2024-03-03T08:04:21.776Z,99.90
2024-03-03T08:05:23.583Z,99.90
2024-03-03T08:06:28.177Z,99.90
2024-03-03T08:07:30.091Z,99.90
2024-03-03T08:08:31.745Z,99.90
2024-03-03T08:09:33.355Z,99.90
2024-03-03T08:10:35.405Z,99.90
2024-03-03T08:11:37.076Z,99.90
2024-03-03T08:12:39.411Z,99.90
2024-03-03T08:13:41.017Z,99.90
2024-03-03T08:14:42.669Z,99.90
2024-03-03T08:15:44.496Z,99.90
2024-03-03T08:16:46.155Z,99.90
2024-03-03T08:17:47.915Z,99.90
2024-03-03T08:18:49.554Z,99.90
2024-03-03T08:19:51.324Z,99.90
2024-03-03T08:20:52.995Z,99.90
2024-03-03T08:21:54.778Z,99.90
2024-03-03T08:22:56.862Z,99.90
2024-03-03T08:23:59.068Z,55.40
2024-03-03T08:25:00.974Z,79.60
2024-03-03T08:26:02.664Z,3.80
2024-03-03T08:27:04.629Z,1.00
2024-03-03T08:28:06.813Z,1.00
2024-03-03T08:29:08.678Z,1.00
2024-03-03T08:30:13.291Z,1.00
2024-03-03T08:31:14.976Z,1.00
2024-03-03T08:32:16.676Z,1.00
2024-03-03T08:33:18.282Z,1.00
2024-03-03T08:34:19.952Z,1.00
2024-03-03T08:35:21.578Z,1.00
2024-03-03T08:36:23.293Z,1.00
2024-03-03T08:37:25.031Z,1.00
2024-03-03T08:38:26.793Z,1.00
2024-03-03T08:39:28.410Z,1.00
2024-03-03T08:40:30.105Z,1.00
2024-03-03T08:41:33.046Z,1.00
2024-03-03T08:42:34.680Z,1.00
2024-03-03T08:43:36.304Z,99.90
2024-03-03T08:44:37.914Z,99.90
2024-03-03T08:45:39.654Z,1.00
2024-03-03T08:46:41.305Z,1.00
2024-03-03T08:47:43.554Z,99.90
2024-03-03T08:48:45.214Z,99.90
2024-03-03T08:49:46.871Z,1.00
2024-03-03T08:50:48.691Z,1.00
2024-03-03T08:51:51.224Z,1.00
2024-03-03T08:52:52.906Z,1.00
2024-03-03T08:53:54.700Z,1.00
2024-03-03T08:54:56.475Z,1.00
2024-03-03T08:55:58.151Z,1.00
2024-03-03T08:57:00.111Z,1.00
2024-03-03T08:58:01.771Z,1.00
2024-03-03T08:59:04.256Z,99.90
2024-03-03T09:00:13.937Z,81.60
2024-03-03T09:01:16.182Z,1.00
2024-03-03T09:02:18.019Z,1.00
2024-03-03T09:03:19.657Z,1.00
2024-03-03T09:04:21.291Z,1.00
2024-03-03T09:05:23.024Z,1.00
2024-03-03T09:06:24.780Z,1.00
2024-03-03T09:07:26.705Z,1.00
2024-03-03T09:08:30.849Z,99.90
2024-03-03T09:09:32.721Z,99.90
2024-03-03T09:10:34.438Z,1.00
2024-03-03T09:11:36.219Z,1.00
2024-03-03T09:12:38.280Z,1.00
2024-03-03T09:13:39.960Z,99.90
2024-03-03T09:14:41.757Z,99.90
2024-03-03T09:15:43.454Z,1.00
2024-03-03T09:16:45.063Z,1.00
2024-03-03T09:17:46.931Z,1.00
2024-03-03T09:18:50.477Z,1.00
2024-03-03T09:19:52.253Z,99.90
2024-03-03T09:20:53.910Z,1.00
2024-03-03T09:21:55.583Z,1.00
2024-03-03T09:22:57.410Z,1.00
2024-03-03T09:24:04.357Z,1.00
2024-03-03T09:25:08.865Z,1.00
2024-03-03T09:26:10.598Z,99.90
2024-03-03T09:27:12.225Z,99.90
2024-03-03T09:28:14.214Z,99.90
2024-03-03T09:29:15.967Z,99.90
2024-03-03T09:30:17.705Z,99.90
2024-03-03T09:31:19.693Z,92.60
2024-03-03T09:32:21.485Z,1.00
2024-03-03T09:33:23.172Z,1.00
2024-03-03T09:34:25.997Z,1.00
2024-03-03T09:35:27.704Z,1.00
2024-03-03T09:36:29.376Z,1.00
2024-03-03T09:37:31.012Z,99.90
2024-03-03T09:38:32.730Z,1.00
2024-03-03T09:39:34.442Z,29.50
2024-03-03T09:41:39.428Z,99.90
2024-03-03T09:42:45.862Z,99.90
2024-03-03T09:43:57.166Z,99.90
2024-03-03T09:45:04.084Z,98.60
2024-03-03T09:46:07.606Z,93.50
2024-03-03T09:47:13.186Z,92.40
2024-03-03T09:48:15.097Z,89.60
2024-03-03T09:49:19.710Z,90.30
2024-03-03T09:50:22.682Z,90.60
2024-03-03T09:51:27.664Z,89.50
2024-03-03T09:52:31.895Z,90.40
2024-03-03T09:53:34.491Z,91.10
2024-03-03T09:54:38.197Z,90.80
2024-03-03T09:55:41.358Z,91.00
2024-03-03T09:56:49.027Z,92.50
2024-03-03T09:57:51.366Z,94.70
2024-03-03T09:58:53.062Z,95.50
2024-03-03T09:59:54.884Z,94.80
2024-03-03T10:00:57.610Z,96.80
2024-03-03T10:01:59.454Z,97.90
2024-03-03T10:03:03.899Z,97.00
2024-03-03T10:04:10.068Z,97.00
2024-03-03T10:05:13.517Z,95.60
2024-03-03T10:06:21.931Z,93.70
2024-03-03T10:07:24.418Z,91.40
2024-03-03T10:08:28.577Z,85.70
2024-03-03T10:09:31.232Z,80.80
2024-03-03T10:10:37.394Z,76.70
2024-03-03T10:11:41.857Z,73.00
2024-03-03T10:12:46.140Z,71.80
2024-03-03T10:13:48.681Z,72.30
2024-03-03T10:14:54.460Z,69.50
2024-03-03T10:16:00.719Z,72.30
2024-03-03T10:17:04.288Z,71.60
2024-03-03T10:18:09.555Z,73.70
2024-03-03T10:19:11.384Z,78.50
2024-03-03T10:20:13.954Z,93.20
2024-03-03T10:21:16.256Z,85.50
2024-03-03T10:22:21.874Z,89.20
2024-03-03T10:23:25.358Z,91.30
2024-03-03T10:24:28.335Z,92.40
2024-03-03T10:25:31.849Z,92.20
2024-03-03T10:26:36.823Z,90.60
2024-03-03T10:27:45.802Z,90.60
2024-03-03T10:30:15.005Z,88.40
2024-03-03T10:31:16.934Z,87.00
2024-03-03T10:32:19.070Z,80.00
2024-03-03T10:33:20.787Z,80.90
2024-03-03T10:34:23.203Z,81.00
2024-03-03T10:35:25.127Z,88.90
2024-03-03T10:36:26.913Z,90.40
2024-03-03T10:37:29.374Z,92.50
2024-03-03T10:38:31.207Z,93.50
2024-03-03T10:39:36.793Z,92.50
2024-03-03T10:40:39.088Z,91.70
2024-03-03T10:41:41.108Z,88.60
2024-03-03T10:42:47.065Z,83.80
2024-03-03T10:43:49.101Z,84.20
2024-03-03T10:44:50.842Z,83.50
2024-03-03T10:45:52.677Z,81.10
2024-03-03T10:46:55.127Z,80.00
2024-03-03T10:47:57.016Z,79.40
2024-03-03T10:48:59.292Z,75.80
2024-03-03T10:50:01.144Z,69.00
2024-03-03T10:51:03.606Z,64.10
2024-03-03T10:52:09.980Z,60.10
2024-03-03T10:53:13.709Z,56.20
2024-03-03T10:54:20.449Z,54.40
2024-03-03T10:55:24.284Z,52.70
2024-03-03T10:56:27.291Z,51.50
2024-03-03T10:57:29.701Z,50.00
2024-03-03T10:58:35.598Z,50.10
2024-03-03T10:59:45.589Z,56.90
2024-03-03T11:00:47.695Z,61.20
2024-03-03T11:01:51.728Z,62.80
2024-03-03T11:02:55.899Z,61.80
2024-03-03T11:04:02.877Z,67.40
2024-03-03T11:05:08.632Z,67.50
2024-03-03T11:06:10.924Z,68.10
2024-03-03T11:07:15.099Z,69.60
2024-03-03T11:08:17.414Z,65.30
2024-03-03T11:09:22.197Z,69.50
2024-03-03T11:10:26.282Z,71.30
2024-03-03T11:11:34.444Z,74.20
2024-03-03T11:12:43.998Z,71.80
2024-03-03T11:13:57.941Z,72.40
2024-03-03T11:15:06.468Z,74.50
2024-03-03T11:16:08.482Z,75.60
2024-03-03T11:17:15.550Z,78.80
2024-03-03T11:18:23.072Z,79.00
2024-03-03T11:19:40.235Z,79.70
2024-03-03T11:21:03.688Z,82.50
2024-03-03T11:22:11.471Z,83.40
2024-03-03T11:23:30.302Z,81.80
2024-03-03T11:24:32.451Z,80.10
2024-03-03T11:25:43.770Z,79.50
2024-03-03T11:26:48.067Z,79.40
2024-03-03T11:28:00.984Z,76.80
2024-03-03T11:29:05.630Z,71.50
2024-03-03T11:30:11.244Z,67.20
2024-03-03T11:31:14.889Z,61.60
2024-03-03T11:32:19.753Z,58.40
2024-03-03T11:33:22.990Z,56.80
2024-03-03T11:34:25.654Z,56.50
2024-03-03T11:35:32.674Z,58.40
2024-03-03T11:36:35.761Z,61.30
2024-03-03T11:37:38.053Z,64.50
2024-03-03T11:38:46.618Z,64.20
2024-03-03T11:39:55.112Z,68.10
2024-03-03T11:41:02.703Z,61.10
2024-03-03T11:42:20.787Z,59.50
2024-03-03T11:43:32.083Z,57.50
2024-03-03T11:44:36.896Z,59.20
2024-03-03T11:45:48.431Z,56.50
2024-03-03T11:46:51.263Z,56.30
2024-03-03T11:47:53.409Z,55.10
2024-03-03T11:49:02.187Z,58.50
2024-03-03T11:50:22.170Z,53.70
2024-03-03T11:51:34.632Z,52.10
2024-03-03T11:52:45.025Z,50.00
2024-03-03T11:53:59.777Z,51.40
2024-03-03T11:55:04.546Z,55.30
2024-03-03T11:56:18.631Z,61.20
2024-03-03T11:57:20.472Z,57.00
2024-03-03T11:58:25.372Z,57.90
2024-03-03T11:59:53.469Z,60.40
2024-03-03T12:01:11.582Z,58.30
2024-03-03T12:02:21.860Z,60.40
2024-03-03T12:03:24.048Z,57.50
2024-03-03T12:04:26.108Z,55.10
2024-03-03T12:05:34.357Z,54.50
2024-03-03T12:06:36.101Z,59.60
2024-03-03T12:07:43.373Z,57.30
2024-03-03T12:08:47.953Z,62.30
2024-03-03T12:09:49.999Z,64.10
2024-03-03T12:10:52.538Z,63.10
2024-03-03T12:11:54.646Z,63.70
2024-03-03T12:13:00.615Z,68.70
2024-03-03T12:14:02.661Z,72.00
2024-03-03T12:15:04.674Z,70.60
2024-03-03T12:16:06.711Z,76.50
2024-03-03T12:17:09.626Z,87.70
2024-03-03T12:18:13.422Z,72.70
2024-03-03T12:19:16.102Z,76.30
2024-03-03T12:20:21.787Z,78.70
2024-03-03T12:21:24.652Z,80.00
2024-03-03T12:22:27.235Z,81.80
2024-03-03T12:23:31.985Z,81.90
2024-03-03T12:24:34.226Z,82.30
2024-03-03T12:25:38.328Z,83.00
2024-03-03T12:26:40.434Z,87.30
2024-03-03T12:27:59.181Z,90.70
2024-03-03T12:29:01.116Z,87.20
2024-03-03T12:30:10.112Z,76.40
2024-03-03T12:31:11.921Z,68.20
2024-03-03T12:32:15.385Z,69.10
2024-03-03T12:33:18.961Z,64.10
2024-03-03T12:34:21.106Z,61.10
2024-03-03T12:35:23.200Z,61.80
2024-03-03T12:36:26.076Z,64.30
2024-03-03T12:37:28.446Z,70.10
2024-03-03T12:38:31.368Z,75.50
2024-03-03T12:40:07.985Z,77.90
2024-03-03T12:41:34.699Z,74.50
2024-03-03T12:45:02.859Z,75.80
2024-03-03T12:46:26.396Z,76.40
2024-03-03T12:51:08.653Z,88.50
2024-03-03T12:53:39.153Z,83.20
2024-03-03T12:54:40.299Z,81.10
2024-03-03T12:58:42.714Z,82.90
2024-03-03T13:02:40.255Z,75.60
2024-03-03T13:03:54.285Z,75.30
2024-03-03T13:04:59.741Z,82.80
2024-03-03T13:06:47.582Z,83.20
2024-03-03T13:07:50.878Z,77.80
2024-03-03T13:08:54.568Z,77.80
2024-03-03T13:09:56.436Z,83.10
2024-03-03T13:10:58.323Z,83.20
2024-03-03T13:12:01.062Z,82.70
2024-03-03T13:13:03.745Z,79.80
2024-03-03T13:14:05.739Z,79.40
2024-03-03T13:15:12.493Z,73.40
2024-03-03T13:16:26.110Z,63.20
2024-03-03T13:17:34.445Z,66.00
2024-03-03T13:18:40.253Z,70.40
2024-03-03T13:20:23.931Z,71.30
2024-03-03T13:21:26.189Z,69.20
2024-03-03T13:32:17.526Z,73.60
2024-03-03T13:33:21.674Z,76.70
2024-03-03T13:49:18.905Z,50.50
2024-03-03T13:54:54.345Z,55.40
2024-03-03T13:55:56.301Z,32.50
2024-03-03T13:56:57.943Z,31.00
2024-03-03T13:58:00.141Z,31.10
2024-03-03T13:59:01.916Z,31.10
2024-03-03T14:00:10.326Z,29.70
2024-03-03T14:01:17.482Z,29.30
2024-03-03T14:02:19.571Z,28.20
2024-03-03T14:03:21.210Z,28.30
2024-03-03T14:04:23.078Z,28.20
2024-03-03T14:05:26.253Z,29.90
2024-03-03T14:06:27.953Z,29.80
2024-03-03T14:07:29.981Z,28.60
2024-03-03T14:08:31.764Z,28.90
2024-03-03T14:09:33.888Z,28.40
2024-03-03T14:10:38.841Z,28.40
2024-03-03T14:14:21.267Z,27.70
2024-03-03T14:15:23.590Z,27.40
2024-03-03T14:16:28.848Z,25.90
2024-03-03T14:17:33.032Z,25.20
2024-03-03T14:21:07.145Z,26.00
2024-03-03T14:22:10.731Z,24.30
2024-03-03T14:23:14.229Z,23.80
2024-03-03T14:24:17.137Z,23.20
2024-03-03T14:26:50.193Z,24.90
2024-03-03T14:27:53.791Z,23.10
2024-03-03T14:28:59.198Z,22.60
2024-03-03T14:30:05.748Z,21.10
2024-03-03T14:31:07.753Z,22.50